sensor_id;sensor_type;location;lat;lon;timestamp;pressure;altitude;pressure_sealevel;temperature;humidity
60355;BME280;46198;51.464;-0.066;2023-05-25T00:00:52;102611.41;;;13.72;100.00
60355;BME280;46198;51.464;-0.066;2023-05-25T00:03:25;102603.81;;;13.67;100.00
60355;BME280;46198;51.464;-0.066;2023-05-25T00:05:54;102611.81;;;13.69;100.00
60355;BME280;46198;51.464;-0.066;2023-05-25T00:08:23;102608.38;;;13.60;100.00
60355;BME280;46198;51.464;-0.066;2023-05-25T00:10:52;102610.91;;;13.62;100.00
60355;BME280;46198;51.464;-0.066;2023-05-25T00:13:20;102616.38;;;13.62;100.00
60355;BME280;46198;51.464;-0.066;2023-05-25T00:15:49;102618.25;;;13.61;100.00
60355;BME280;46198;51.464;-0.066;2023-05-25T00:18:18;102621.78;;;13.55;100.00
60355;BME280;46198;51.464;-0.066;2023-05-25T00:20:46;102625.16;;;13.57;100.00
60355;BME280;46198;51.464;-0.066;2023-05-25T00:23:15;102616.97;;;13.57;100.00
60355;BME280;46198;51.464;-0.066;2023-05-25T00:25:43;102618.00;;;13.56;100.00
60355;BME280;46198;51.464;-0.066;2023-05-25T00:28:11;102627.22;;;13.55;100.00
60355;BME280;46198;51.464;-0.066;2023-05-25T00:30:40;102620.72;;;13.56;100.00
60355;BME280;46198;51.464;-0.066;2023-05-25T00:33:08;102621.97;;;13.53;100.00
60355;BME280;46198;51.464;-0.066;2023-05-25T00:35:38;102622.56;;;13.49;100.00
60355;BME280;46198;51.464;-0.066;2023-05-25T00:38:11;102630.09;;;13.47;100.00
60355;BME280;46198;51.464;-0.066;2023-05-25T00:40:40;102626.53;;;13.46;100.00
60355;BME280;46198;51.464;-0.066;2023-05-25T00:43:08;102632.56;;;13.42;100.00
60355;BME280;46198;51.464;-0.066;2023-05-25T00:45:37;102629.19;;;13.40;100.00
60355;BME280;46198;51.464;-0.066;2023-05-25T00:48:05;102628.50;;;13.38;100.00
60355;BME280;46198;51.464;-0.066;2023-05-25T00:50:40;102630.81;;;13.34;100.00
60355;BME280;46198;51.464;-0.066;2023-05-25T00:53:10;102633.34;;;13.36;100.00
60355;BME280;46198;51.464;-0.066;2023-05-25T00:55:43;102641.28;;;13.30;100.00
60355;BME280;46198;51.464;-0.066;2023-05-25T00:58:12;102634.31;;;13.28;100.00
60355;BME280;46198;51.464;-0.066;2023-05-25T01:00:44;102636.19;;;13.27;100.00
60355;BME280;46198;51.464;-0.066;2023-05-25T01:03:18;102635.69;;;13.24;100.00
60355;BME280;46198;51.464;-0.066;2023-05-25T01:05:51;102639.47;;;13.23;100.00
60355;BME280;46198;51.464;-0.066;2023-05-25T01:08:22;102643.25;;;13.22;100.00
60355;BME280;46198;51.464;-0.066;2023-05-25T01:10:51;102639.84;;;13.20;100.00
60355;BME280;46198;51.464;-0.066;2023-05-25T01:13:20;102657.91;;;13.21;100.00
60355;BME280;46198;51.464;-0.066;2023-05-25T01:15:48;102656.41;;;13.18;100.00
60355;BME280;46198;51.464;-0.066;2023-05-25T01:18:18;102656.41;;;13.18;100.00
60355;BME280;46198;51.464;-0.066;2023-05-25T01:20:58;102659.13;;;13.18;100.00
60355;BME280;46198;51.464;-0.066;2023-05-25T01:23:42;102656.22;;;13.20;100.00
60355;BME280;46198;51.464;-0.066;2023-05-25T01:26:12;102653.69;;;13.18;100.00
60355;BME280;46198;51.464;-0.066;2023-05-25T01:28:45;102655.94;;;13.15;100.00
60355;BME280;46198;51.464;-0.066;2023-05-25T01:31:19;102660.75;;;13.13;100.00
60355;BME280;46198;51.464;-0.066;2023-05-25T01:33:49;102658.22;;;13.11;100.00
60355;BME280;46198;51.464;-0.066;2023-05-25T01:36:19;102657.19;;;13.12;100.00
60355;BME280;46198;51.464;-0.066;2023-05-25T01:38:47;102658.22;;;13.11;100.00
60355;BME280;46198;51.464;-0.066;2023-05-25T01:41:16;102654.84;;;13.09;100.00
60355;BME280;46198;51.464;-0.066;2023-05-25T01:43:44;102655.22;;;13.06;100.00
60355;BME280;46198;51.464;-0.066;2023-05-25T01:46:18;102653.53;;;13.05;100.00
60355;BME280;46198;51.464;-0.066;2023-05-25T01:48:53;102652.03;;;13.02;100.00
60355;BME280;46198;51.464;-0.066;2023-05-25T01:51:35;102648.66;;;13.00;100.00
60355;BME280;46198;51.464;-0.066;2023-05-25T01:54:08;102648.00;;;12.98;100.00
60355;BME280;46198;51.464;-0.066;2023-05-25T01:56:39;102651.97;;;12.96;100.00
60355;BME280;46198;51.464;-0.066;2023-05-25T01:59:10;102650.28;;;12.95;100.00
60355;BME280;46198;51.464;-0.066;2023-05-25T02:01:38;102651.28;;;12.94;100.00
60355;BME280;46198;51.464;-0.066;2023-05-25T02:04:08;102653.00;;;12.95;100.00
60355;BME280;46198;51.464;-0.066;2023-05-25T02:06:38;102655.06;;;12.93;100.00
60355;BME280;46198;51.464;-0.066;2023-05-25T02:09:06;102655.91;;;12.93;100.00
60355;BME280;46198;51.464;-0.066;2023-05-25T02:11:34;102660.97;;;12.96;100.00
60355;BME280;46198;51.464;-0.066;2023-05-25T02:14:02;102653.63;;;12.97;100.00
60355;BME280;46198;51.464;-0.066;2023-05-25T02:16:30;102654.97;;;13.01;100.00
60355;BME280;46198;51.464;-0.066;2023-05-25T02:18:59;102660.69;;;13.06;100.00
60355;BME280;46198;51.464;-0.066;2023-05-25T02:21:27;102659.47;;;13.08;100.00
60355;BME280;46198;51.464;-0.066;2023-05-25T02:23:57;102661.59;;;13.13;100.00
60355;BME280;46198;51.464;-0.066;2023-05-25T02:26:25;102659.53;;;13.15;100.00
60355;BME280;46198;51.464;-0.066;2023-05-25T02:28:53;102663.56;;;13.19;100.00
60355;BME280;46198;51.464;-0.066;2023-05-25T02:31:21;102666.09;;;13.21;100.00
60355;BME280;46198;51.464;-0.066;2023-05-25T02:33:49;102668.94;;;13.27;100.00
60355;BME280;46198;51.464;-0.066;2023-05-25T02:36:18;102667.88;;;13.28;100.00
60355;BME280;46198;51.464;-0.066;2023-05-25T02:38:47;102665.81;;;13.30;100.00
60355;BME280;46198;51.464;-0.066;2023-05-25T02:41:19;102673.41;;;13.35;100.00
60355;BME280;46198;51.464;-0.066;2023-05-25T02:43:47;102670.31;;;13.38;100.00
60355;BME280;46198;51.464;-0.066;2023-05-25T02:46:15;102665.31;;;13.42;100.00
60355;BME280;46198;51.464;-0.066;2023-05-25T02:48:44;102665.97;;;13.44;100.00
60355;BME280;46198;51.464;-0.066;2023-05-25T02:51:12;102670.38;;;13.45;100.00
60355;BME280;46198;51.464;-0.066;2023-05-25T02:53:41;102663.50;;;13.49;100.00
60355;BME280;46198;51.464;-0.066;2023-05-25T02:56:09;102669.59;;;13.51;100.00
60355;BME280;46198;51.464;-0.066;2023-05-25T02:58:38;102672.97;;;13.53;100.00
60355;BME280;46198;51.464;-0.066;2023-05-25T03:01:11;102663.56;;;13.56;100.00
60355;BME280;46198;51.464;-0.066;2023-05-25T03:03:51;102666.94;;;13.58;100.00
60355;BME280;46198;51.464;-0.066;2023-05-25T03:06:22;102667.38;;;13.61;100.00
60355;BME280;46198;51.464;-0.066;2023-05-25T03:09:00;102669.72;;;13.64;100.00
60355;BME280;46198;51.464;-0.066;2023-05-25T03:11:30;102682.97;;;13.67;100.00
60355;BME280;46198;51.464;-0.066;2023-05-25T03:14:02;102675.19;;;13.64;100.00
60355;BME280;46198;51.464;-0.066;2023-05-25T03:16:32;102674.78;;;13.67;100.00
60355;BME280;46198;51.464;-0.066;2023-05-25T03:19:03;102675.63;;;13.68;100.00
60355;BME280;46198;51.464;-0.066;2023-05-25T03:21:33;102687.41;;;13.68;100.00
60355;BME280;46198;51.464;-0.066;2023-05-25T03:24:02;102684.47;;;13.70;100.00
60355;BME280;46198;51.464;-0.066;2023-05-25T03:26:31;102684.47;;;13.70;100.00
60355;BME280;46198;51.464;-0.066;2023-05-25T03:29:02;102684.28;;;13.71;100.00
60355;BME280;46198;51.464;-0.066;2023-05-25T03:31:32;102685.97;;;13.72;100.00
60355;BME280;46198;51.464;-0.066;2023-05-25T03:34:01;102683.22;;;13.72;100.00
60355;BME280;46198;51.464;-0.066;2023-05-25T03:36:31;102680.72;;;13.71;100.00
60355;BME280;46198;51.464;-0.066;2023-05-25T03:38:59;102689.09;;;13.69;100.00
60355;BME280;46198;51.464;-0.066;2023-05-25T03:41:28;102684.47;;;13.70;100.00
60355;BME280;46198;51.464;-0.066;2023-05-25T03:43:56;102679.41;;;13.67;100.00
60355;BME280;46198;51.464;-0.066;2023-05-25T03:46:26;102682.34;;;13.65;100.00
60355;BME280;46198;51.464;-0.066;2023-05-25T03:48:56;102685.69;;;13.67;100.00
60355;BME280;46198;51.464;-0.066;2023-05-25T03:51:24;102681.09;;;13.68;100.00
60355;BME280;46198;51.464;-0.066;2023-05-25T03:53:54;102684.69;;;13.68;100.00
60355;BME280;46198;51.464;-0.066;2023-05-25T03:56:23;102681.94;;;13.68;100.00
60355;BME280;46198;51.464;-0.066;2023-05-25T03:58:52;102686.34;;;13.69;100.00
60355;BME280;46198;51.464;-0.066;2023-05-25T04:01:20;102689.09;;;13.69;100.00
60355;BME280;46198;51.464;-0.066;2023-05-25T04:03:53;102686.19;;;13.71;100.00
60355;BME280;46198;51.464;-0.066;2023-05-25T04:06:22;102685.31;;;13.70;100.00
60355;BME280;46198;51.464;-0.066;2023-05-25T04:08:51;102686.34;;;13.69;100.00
60355;BME280;46198;51.464;-0.066;2023-05-25T04:11:19;102686.34;;;13.69;100.00
60355;BME280;46198;51.464;-0.066;2023-05-25T04:13:48;102689.66;;;13.65;100.00
60355;BME280;46198;51.464;-0.066;2023-05-25T04:16:16;102694.94;;;13.66;100.00
60355;BME280;46198;51.464;-0.066;2023-05-25T04:18:44;102684.41;;;13.63;100.00
60355;BME280;46198;51.464;-0.066;2023-05-25T04:21:14;102689.88;;;13.63;100.00
60355;BME280;46198;51.464;-0.066;2023-05-25T04:23:43;102694.94;;;13.66;100.00
60355;BME280;46198;51.464;-0.066;2023-05-25T04:26:11;102689.88;;;13.63;100.00
60355;BME280;46198;51.464;-0.066;2023-05-25T04:28:42;102693.63;;;13.62;100.00
60355;BME280;46198;51.464;-0.066;2023-05-25T04:31:40;102704.53;;;13.62;100.00
60355;BME280;46198;51.464;-0.066;2023-05-25T04:34:20;102698.06;;;13.63;100.00
60355;BME280;46198;51.464;-0.066;2023-05-25T04:37:00;102700.78;;;13.63;100.00
60355;BME280;46198;51.464;-0.066;2023-05-25T04:39:31;102702.88;;;13.61;100.00
60355;BME280;46198;51.464;-0.066;2023-05-25T04:41:59;102703.31;;;13.65;100.00
60355;BME280;46198;51.464;-0.066;2023-05-25T04:44:31;102710.66;;;13.64;100.00
60355;BME280;46198;51.464;-0.066;2023-05-25T04:47:01;102706.25;;;13.63;100.00
60355;BME280;46198;51.464;-0.066;2023-05-25T04:49:33;102713.41;;;13.64;100.00
60355;BME280;46198;51.464;-0.066;2023-05-25T04:52:03;102718.84;;;13.64;100.00
60355;BME280;46198;51.464;-0.066;2023-05-25T04:54:32;102713.41;;;13.64;100.00
60355;BME280;46198;51.464;-0.066;2023-05-25T04:57:01;102716.50;;;13.61;100.00
60355;BME280;46198;51.464;-0.066;2023-05-25T04:59:30;102718.19;;;13.62;100.00
60355;BME280;46198;51.464;-0.066;2023-05-25T05:01:59;102720.56;;;13.65;100.00
60355;BME280;46198;51.464;-0.066;2023-05-25T05:04:27;102719.50;;;13.66;100.00
60355;BME280;46198;51.464;-0.066;2023-05-25T05:06:56;102726.06;;;13.72;100.00
60355;BME280;46198;51.464;-0.066;2023-05-25T05:09:29;102724.41;;;13.71;100.00
60355;BME280;46198;51.464;-0.066;2023-05-25T05:11:59;102721.41;;;13.66;100.00
60355;BME280;46198;51.464;-0.066;2023-05-25T05:14:33;102730.63;;;13.65;100.00
60355;BME280;46198;51.464;-0.066;2023-05-25T05:17:01;102732.91;;;13.61;100.00
60355;BME280;46198;51.464;-0.066;2023-05-25T05:19:30;102731.84;;;13.62;100.00
60355;BME280;46198;51.464;-0.066;2023-05-25T05:22:00;102729.50;;;13.59;100.00
60355;BME280;46198;51.464;-0.066;2023-05-25T05:24:29;102737.41;;;13.54;100.00
60355;BME280;46198;51.464;-0.066;2023-05-25T05:26:59;102736.00;;;13.58;100.00
60355;BME280;46198;51.464;-0.066;2023-05-25T05:29:42;102745.69;;;13.61;100.00
60355;BME280;46198;51.464;-0.066;2023-05-25T05:32:10;102750.78;;;13.64;100.00
60355;BME280;46198;51.464;-0.066;2023-05-25T05:34:38;102750.94;;;13.62;100.00
60355;BME280;46198;51.464;-0.066;2023-05-25T05:37:15;102746.47;;;13.55;100.00
60355;BME280;46198;51.464;-0.066;2023-05-25T05:39:46;102752.00;;;13.61;100.00
60355;BME280;46198;51.464;-0.066;2023-05-25T05:42:14;102755.00;;;13.66;100.00
60355;BME280;46198;51.464;-0.066;2023-05-25T05:44:42;102753.09;;;13.67;100.00
60355;BME280;46198;51.464;-0.066;2023-05-25T05:47:11;102747.91;;;13.72;100.00
60355;BME280;46198;51.464;-0.066;2023-05-25T05:49:39;102761.84;;;13.77;100.00
60355;BME280;46198;51.464;-0.066;2023-05-25T05:52:08;102764.28;;;13.72;100.00
60355;BME280;46198;51.464;-0.066;2023-05-25T05:54:37;102763.47;;;13.71;100.00
60355;BME280;46198;51.464;-0.066;2023-05-25T05:57:10;102758.44;;;13.75;100.00
60355;BME280;46198;51.464;-0.066;2023-05-25T05:59:39;102765.22;;;13.79;100.00
60355;BME280;46198;51.464;-0.066;2023-05-25T06:02:07;102765.41;;;13.78;100.00
60355;BME280;46198;51.464;-0.066;2023-05-25T06:04:36;102776.06;;;13.72;100.00
60355;BME280;46198;51.464;-0.066;2023-05-25T06:07:04;102769.38;;;13.75;100.00
60355;BME280;46198;51.464;-0.066;2023-05-25T06:09:33;102768.13;;;13.78;100.00
60355;BME280;46198;51.464;-0.066;2023-05-25T06:12:03;102779.16;;;13.84;100.00
60355;BME280;46198;51.464;-0.066;2023-05-25T06:14:34;102776.59;;;13.83;100.00
60355;BME280;46198;51.464;-0.066;2023-05-25T06:17:03;102776.88;;;13.88;100.00
60355;BME280;46198;51.464;-0.066;2023-05-25T06:19:32;102781.66;;;13.86;100.00
60355;BME280;46198;51.464;-0.066;2023-05-25T06:22:00;102781.75;;;13.92;100.00
60355;BME280;46198;51.464;-0.066;2023-05-25T06:24:28;102790.78;;;13.93;100.00
60355;BME280;46198;51.464;-0.066;2023-05-25T06:26:57;102783.03;;;13.96;100.00
60355;BME280;46198;51.464;-0.066;2023-05-25T06:29:25;102786.34;;;13.92;99.78
60355;BME280;46198;51.464;-0.066;2023-05-25T06:31:54;102784.66;;;13.91;100.00
60355;BME280;46198;51.464;-0.066;2023-05-25T06:34:23;102790.25;;;14.04;100.00
60355;BME280;46198;51.464;-0.066;2023-05-25T06:36:51;102791.09;;;14.05;96.90
60355;BME280;46198;51.464;-0.066;2023-05-25T06:39:20;102798.91;;;14.08;99.75
60355;BME280;46198;51.464;-0.066;2023-05-25T06:41:48;102792.47;;;14.15;99.72
60355;BME280;46198;51.464;-0.066;2023-05-25T06:44:27;102794.13;;;14.16;95.80
60355;BME280;46198;51.464;-0.066;2023-05-25T06:46:56;102788.75;;;14.23;97.23
60355;BME280;46198;51.464;-0.066;2023-05-25T06:49:24;102795.97;;;14.31;94.41
60355;BME280;46198;51.464;-0.066;2023-05-25T06:51:53;102794.78;;;14.40;93.15
60355;BME280;46198;51.464;-0.066;2023-05-25T06:54:21;102797.38;;;14.48;93.21
60355;BME280;46198;51.464;-0.066;2023-05-25T06:56:50;102796.22;;;14.36;89.96
60355;BME280;46198;51.464;-0.066;2023-05-25T06:59:18;102809.03;;;14.35;90.38
60355;BME280;46198;51.464;-0.066;2023-05-25T07:01:46;102807.41;;;14.41;91.36
60355;BME280;46198;51.464;-0.066;2023-05-25T07:04:17;102803.16;;;14.60;91.41
60355;BME280;46198;51.464;-0.066;2023-05-25T07:06:45;102795.63;;;14.62;92.45
60355;BME280;46198;51.464;-0.066;2023-05-25T07:09:14;102798.66;;;14.74;95.23
60355;BME280;46198;51.464;-0.066;2023-05-25T07:11:43;102797.25;;;14.84;92.68
60355;BME280;46198;51.464;-0.066;2023-05-25T07:14:11;102798.97;;;14.92;90.07
60355;BME280;46198;51.464;-0.066;2023-05-25T07:16:39;102799.38;;;14.89;90.73
60355;BME280;46198;51.464;-0.066;2023-05-25T07:19:07;102795.91;;;15.08;89.33
60355;BME280;46198;51.464;-0.066;2023-05-25T07:21:37;102801.03;;;15.18;87.12
60355;BME280;46198;51.464;-0.066;2023-05-25T07:24:05;102803.63;;;15.33;84.86
60355;BME280;46198;51.464;-0.066;2023-05-25T07:26:34;102804.59;;;15.19;76.96
60355;BME280;46198;51.464;-0.066;2023-05-25T07:29:02;102800.75;;;15.55;78.85
60355;BME280;46198;51.464;-0.066;2023-05-25T07:31:31;102810.75;;;15.69;80.75
60355;BME280;46198;51.464;-0.066;2023-05-25T07:33:59;102812.06;;;15.86;82.80
60355;BME280;46198;51.464;-0.066;2023-05-25T07:36:27;102811.25;;;16.06;80.56
60355;BME280;46198;51.464;-0.066;2023-05-25T07:38:57;102817.56;;;16.00;79.81
60355;BME280;46198;51.464;-0.066;2023-05-25T07:41:25;102819.25;;;15.94;79.33
60355;BME280;46198;51.464;-0.066;2023-05-25T07:43:53;102817.16;;;16.03;82.26
60355;BME280;46198;51.464;-0.066;2023-05-25T07:46:21;102820.97;;;16.02;81.15
60355;BME280;46198;51.464;-0.066;2023-05-25T07:48:51;102809.56;;;16.05;78.27
60355;BME280;46198;51.464;-0.066;2023-05-25T07:51:20;102815.41;;;15.82;83.08
60355;BME280;46198;51.464;-0.066;2023-05-25T07:53:52;102817.16;;;16.03;87.24
60355;BME280;46198;51.464;-0.066;2023-05-25T07:56:23;102822.66;;;16.16;86.06
60355;BME280;46198;51.464;-0.066;2023-05-25T07:58:52;102816.97;;;16.17;86.07
60355;BME280;46198;51.464;-0.066;2023-05-25T08:01:20;102822.66;;;16.16;86.27
60355;BME280;46198;51.464;-0.066;2023-05-25T08:03:51;102828.97;;;16.16;84.96
60355;BME280;46198;51.464;-0.066;2023-05-25T08:06:20;102829.00;;;16.50;87.70
60355;BME280;46198;51.464;-0.066;2023-05-25T08:08:48;102831.13;;;16.48;77.98
60355;BME280;46198;51.464;-0.066;2023-05-25T08:11:16;102830.28;;;16.67;75.71
60355;BME280;46198;51.464;-0.066;2023-05-25T08:13:50;102824.78;;;16.54;79.27
60355;BME280;46198;51.464;-0.066;2023-05-25T08:16:18;102828.97;;;17.10;73.14
60355;BME280;46198;51.464;-0.066;2023-05-25T08:18:46;102827.41;;;17.34;71.15
60355;BME280;46198;51.464;-0.066;2023-05-25T08:21:15;102828.34;;;17.66;78.51
60355;BME280;46198;51.464;-0.066;2023-05-25T08:23:43;102829.09;;;17.93;69.44
60355;BME280;46198;51.464;-0.066;2023-05-25T08:26:11;102831.47;;;18.14;76.77
60355;BME280;46198;51.464;-0.066;2023-05-25T08:29:01;102833.69;;;18.56;65.50
60355;BME280;46198;51.464;-0.066;2023-05-25T08:31:30;102840.72;;;18.27;60.23
60355;BME280;46198;51.464;-0.066;2023-05-25T08:33:58;102835.72;;;18.67;60.71
60355;BME280;46198;51.464;-0.066;2023-05-25T08:36:27;102831.66;;;18.70;59.92
60355;BME280;46198;51.464;-0.066;2023-05-25T08:38:55;102829.38;;;18.67;62.90
60355;BME280;46198;51.464;-0.066;2023-05-25T08:41:23;102828.84;;;19.01;65.79
60355;BME280;46198;51.464;-0.066;2023-05-25T08:43:52;102828.47;;;18.98;58.39
60355;BME280;46198;51.464;-0.066;2023-05-25T08:46:28;102833.44;;;18.89;64.85
60355;BME280;46198;51.464;-0.066;2023-05-25T08:48:59;102839.41;;;19.04;61.69
60355;BME280;46198;51.464;-0.066;2023-05-25T08:51:34;102829.34;;;19.17;61.74
60355;BME280;46198;51.464;-0.066;2023-05-25T08:54:06;102822.91;;;19.60;62.06
60355;BME280;46198;51.464;-0.066;2023-05-25T08:56:40;102837.97;;;19.39;60.38
60355;BME280;46198;51.464;-0.066;2023-05-25T08:59:15;102835.59;;;19.24;60.16
60355;BME280;46198;51.464;-0.066;2023-05-25T09:01:52;102830.69;;;19.63;60.82
60355;BME280;46198;51.464;-0.066;2023-05-25T09:04:23;102821.66;;;19.56;59.66
60355;BME280;46198;51.464;-0.066;2023-05-25T09:06:52;102831.91;;;19.85;59.45
60355;BME280;46198;51.464;-0.066;2023-05-25T09:09:36;102816.00;;;19.51;57.05
60355;BME280;46198;51.464;-0.066;2023-05-25T09:12:06;102818.53;;;19.70;60.06
60355;BME280;46198;51.464;-0.066;2023-05-25T09:14:35;102828.19;;;19.91;62.86
60355;BME280;46198;51.464;-0.066;2023-05-25T09:17:06;102818.22;;;20.32;61.25
60355;BME280;46198;51.464;-0.066;2023-05-25T09:19:35;102822.16;;;19.83;56.88
60355;BME280;46198;51.464;-0.066;2023-05-25T09:22:03;102822.66;;;19.80;55.97
60355;BME280;46198;51.464;-0.066;2023-05-25T09:24:42;102831.84;;;19.55;59.89
60355;BME280;46198;51.464;-0.066;2023-05-25T09:27:12;102832.84;;;19.42;58.58
60355;BME280;46198;51.464;-0.066;2023-05-25T09:29:40;102836.63;;;18.86;60.13
60355;BME280;46198;51.464;-0.066;2023-05-25T09:32:10;102837.63;;;18.67;59.81
60355;BME280;46198;51.464;-0.066;2023-05-25T09:34:38;102829.44;;;18.60;66.03
60355;BME280;46198;51.464;-0.066;2023-05-25T09:37:10;102838.75;;;18.59;63.81
60355;BME280;46198;51.464;-0.066;2023-05-25T09:39:39;102829.16;;;18.43;62.95
60355;BME280;46198;51.464;-0.066;2023-05-25T09:42:08;102831.44;;;18.21;64.64
60355;BME280;46198;51.464;-0.066;2023-05-25T09:44:37;102847.44;;;18.31;65.93
60355;BME280;46198;51.464;-0.066;2023-05-25T09:47:05;102853.03;;;18.17;66.46
60355;BME280;46198;51.464;-0.066;2023-05-25T09:49:35;102850.28;;;18.17;66.70
60355;BME280;46198;51.464;-0.066;2023-05-25T09:52:05;102855.03;;;18.04;69.60
60355;BME280;46198;51.464;-0.066;2023-05-25T09:54:35;102845.84;;;17.71;70.60
60355;BME280;46198;51.464;-0.066;2023-05-25T09:57:04;102849.69;;;17.70;70.04
60355;BME280;46198;51.464;-0.066;2023-05-25T09:59:33;102857.47;;;17.80;75.74
60355;BME280;46198;51.464;-0.066;2023-05-25T10:02:01;102854.91;;;17.85;73.77
60355;BME280;46198;51.464;-0.066;2023-05-25T10:04:29;102861.63;;;17.96;71.04
60355;BME280;46198;51.464;-0.066;2023-05-25T10:06:59;102857.28;;;17.75;67.94
60355;BME280;46198;51.464;-0.066;2023-05-25T10:09:28;102857.00;;;17.90;71.13
60355;BME280;46198;51.464;-0.066;2023-05-25T10:11:58;102862.44;;;18.03;67.99
60355;BME280;46198;51.464;-0.066;2023-05-25T10:14:28;102864.94;;;18.05;67.41
60355;BME280;46198;51.464;-0.066;2023-05-25T10:16:58;102863.66;;;18.07;72.41
60355;BME280;46198;51.464;-0.066;2023-05-25T10:19:31;102864.56;;;18.01;70.63
60355;BME280;46198;51.464;-0.066;2023-05-25T10:22:03;102865.94;;;17.79;70.06
60355;BME280;46198;51.464;-0.066;2023-05-25T10:24:38;102864.03;;;17.79;72.03
60355;BME280;46198;51.464;-0.066;2023-05-25T10:27:13;102862.94;;;17.87;73.80
60355;BME280;46198;51.464;-0.066;2023-05-25T10:29:54;102864.28;;;18.09;70.83
60355;BME280;46198;51.464;-0.066;2023-05-25T10:32:23;102877.06;;;18.29;69.55
60355;BME280;46198;51.464;-0.066;2023-05-25T10:34:52;102870.44;;;18.05;69.48
60355;BME280;46198;51.464;-0.066;2023-05-25T10:37:22;102863.66;;;18.07;69.25
60355;BME280;46198;51.464;-0.066;2023-05-25T10:39:54;102872.28;;;18.17;70.22
60355;BME280;46198;51.464;-0.066;2023-05-25T10:42:23;102872.81;;;18.33;68.15
60355;BME280;46198;51.464;-0.066;2023-05-25T10:44:52;102883.31;;;18.43;67.54
60355;BME280;46198;51.464;-0.066;2023-05-25T10:47:23;102872.91;;;18.51;70.30
60355;BME280;46198;51.464;-0.066;2023-05-25T10:49:52;102871.94;;;18.39;65.34
60355;BME280;46198;51.464;-0.066;2023-05-25T10:52:25;102879.47;;;18.50;69.32
60355;BME280;46198;51.464;-0.066;2023-05-25T10:54:55;102873.66;;;18.90;64.07
60355;BME280;46198;51.464;-0.066;2023-05-25T10:57:24;102866.56;;;19.01;62.81
60355;BME280;46198;51.464;-0.066;2023-05-25T10:59:53;102873.38;;;18.98;63.08
60355;BME280;46198;51.464;-0.066;2023-05-25T11:02:29;102870.81;;;18.97;60.98
60355;BME280;46198;51.464;-0.066;2023-05-25T11:05:35;102861.69;;;19.40;61.00
60355;BME280;46198;51.464;-0.066;2023-05-25T11:08:06;102871.59;;;19.66;64.01
60355;BME280;46198;51.464;-0.066;2023-05-25T11:10:42;102872.03;;;19.63;61.87
60355;BME280;46198;51.464;-0.066;2023-05-25T11:13:20;102868.34;;;19.51;60.36
60355;BME280;46198;51.464;-0.066;2023-05-25T11:16:13;102861.47;;;19.23;58.23
60355;BME280;46198;51.464;-0.066;2023-05-25T11:18:44;102858.50;;;19.24;59.51
60355;BME280;46198;51.464;-0.066;2023-05-25T11:21:14;102863.09;;;19.49;60.25
60355;BME280;46198;51.464;-0.066;2023-05-25T11:23:56;102866.50;;;19.26;60.66
60355;BME280;46198;51.464;-0.066;2023-05-25T11:26:26;102870.22;;;18.95;61.00
60355;BME280;46198;51.464;-0.066;2023-05-25T11:28:56;102885.13;;;18.87;63.26
60355;BME280;46198;51.464;-0.066;2023-05-25T11:31:29;102875.31;;;18.66;63.61
60355;BME280;46198;51.464;-0.066;2023-05-25T11:34:05;102874.22;;;18.67;63.23
60355;BME280;46198;51.464;-0.066;2023-05-25T11:36:35;102880.16;;;18.71;63.55
60355;BME280;46198;51.464;-0.066;2023-05-25T11:39:05;102878.13;;;18.59;62.22
60355;BME280;46198;51.464;-0.066;2023-05-25T11:41:49;102878.06;;;18.66;62.71
60355;BME280;46198;51.464;-0.066;2023-05-25T11:44:25;102892.22;;;18.70;65.66
60355;BME280;46198;51.464;-0.066;2023-05-25T11:46:55;102882.91;;;18.71;61.80
60355;BME280;46198;51.464;-0.066;2023-05-25T11:49:24;102884.41;;;18.42;62.50
60355;BME280;46198;51.464;-0.066;2023-05-25T11:51:53;102875.47;;;18.46;60.71
60355;BME280;46198;51.464;-0.066;2023-05-25T11:54:24;102879.28;;;18.45;64.57
60355;BME280;46198;51.464;-0.066;2023-05-25T11:56:53;102883.00;;;18.26;65.15
60355;BME280;46198;51.464;-0.066;2023-05-25T11:59:24;102880.66;;;18.29;66.20
60355;BME280;46198;51.464;-0.066;2023-05-25T12:01:58;102878.78;;;18.23;67.21
60355;BME280;46198;51.464;-0.066;2023-05-25T12:04:27;102883.38;;;18.36;69.53
60355;BME280;46198;51.464;-0.066;2023-05-25T12:07:01;102883.47;;;18.23;66.01
60355;BME280;46198;51.464;-0.066;2023-05-25T12:09:31;102871.44;;;18.17;66.87
60355;BME280;46198;51.464;-0.066;2023-05-25T12:12:02;102865.03;;;18.30;68.90
60355;BME280;46198;51.464;-0.066;2023-05-25T12:14:31;102872.75;;;18.39;68.57
60355;BME280;46198;51.464;-0.066;2023-05-25T12:17:02;102870.25;;;18.38;65.56
60355;BME280;46198;51.464;-0.066;2023-05-25T12:19:39;102869.66;;;18.29;68.32
60355;BME280;46198;51.464;-0.066;2023-05-25T12:22:08;102874.56;;;18.27;66.12
60355;BME280;46198;51.464;-0.066;2023-05-25T12:24:38;102873.09;;;18.25;66.02
60355;BME280;46198;51.464;-0.066;2023-05-25T12:27:15;102869.09;;;18.21;67.58
60355;BME280;46198;51.464;-0.066;2023-05-25T12:29:45;102875.34;;;18.34;64.37
60355;BME280;46198;51.464;-0.066;2023-05-25T12:32:14;102875.00;;;18.24;67.77
60355;BME280;46198;51.464;-0.066;2023-05-25T12:34:46;102871.84;;;18.21;67.77
60355;BME280;46198;51.464;-0.066;2023-05-25T12:37:18;102867.41;;;18.20;67.37
60355;BME280;46198;51.464;-0.066;2023-05-25T12:39:48;102871.38;;;18.24;69.55
60355;BME280;46198;51.464;-0.066;2023-05-25T12:42:17;102873.16;;;18.11;67.25
60355;BME280;46198;51.464;-0.066;2023-05-25T12:44:45;102876.75;;;18.12;68.57
60355;BME280;46198;51.464;-0.066;2023-05-25T12:47:15;102864.41;;;18.21;67.05
60355;BME280;46198;51.464;-0.066;2023-05-25T12:49:46;102870.81;;;18.15;69.52
60355;BME280;46198;51.464;-0.066;2023-05-25T12:52:32;102876.38;;;18.02;69.22